Time;durP1;ratioP1;P1;durP2;ratioP2;P2;SDS_P1;SDS_P2;PMS_P1;PMS_P2;Temp;Humidity;BMP_temperature;BMP_pressure;BME280_temperature;BME280_humidity;BME280_pressure;Samples;Min_cycle;Max_cycle;Signal;HPM_P1;HPM_P2
2023/04/08 00:00:55;;;;;;;20.00;15.57;;;7.30;99.90;;;;;;5055180;28;20444;-51
2023/04/08 00:03:22;;;;;;;17.40;14.10;;;7.30;99.90;;;;;;5054897;28;20423;-51
2023/04/08 00:05:50;;;;;;;18.33;14.13;;;7.30;99.90;;;;;;5055055;28;20609;-50
2023/04/08 00:08:16;;;;;;;16.77;14.30;;;7.20;99.90;;;;;;5054571;28;20472;-50
2023/04/08 00:10:43;;;;;;;20.93;15.10;;;7.10;99.90;;;;;;5054945;28;20419;-50
2023/04/08 00:13:10;;;;;;;24.93;17.17;;;7.70;99.90;;;;;;5054891;28;20448;-51
2023/04/08 00:15:37;;;;;;;23.30;16.97;;;6.90;99.90;;;;;;5054787;28;20915;-52
2023/04/08 00:18:04;;;;;;;24.83;17.57;;;7.10;99.90;;;;;;5054387;28;20481;-50
2023/04/08 00:20:30;;;;;;;21.10;16.60;;;7.20;99.90;;;;;;5036574;28;20418;-52
2023/04/08 00:22:58;;;;;;;27.60;18.80;;;7.30;99.90;;;;;;5054545;28;20460;-51
2023/04/08 00:25:25;;;;;;;27.37;18.37;;;7.20;99.90;;;;;;5054593;28;20414;-51
2023/04/08 00:27:51;;;;;;;29.80;18.63;;;7.30;99.90;;;;;;5036469;28;20419;-51
2023/04/08 00:30:18;;;;;;;30.50;19.50;;;7.30;99.90;;;;;;5053065;28;20435;-52
2023/04/08 00:32:45;;;;;;;28.40;18.20;;;7.10;99.90;;;;;;5036668;28;20452;-50
2023/04/08 00:35:13;;;;;;;32.00;20.03;;;7.80;99.90;;;;;;5036616;28;20453;-50
2023/04/08 00:37:40;;;;;;;30.10;21.23;;;6.70;99.90;;;;;;5054363;28;20523;-51
2023/04/08 00:40:09;;;;;;;26.47;19.87;;;6.90;99.90;;;;;;5054026;28;20457;-50
2023/04/08 00:42:36;;;;;;;30.70;20.57;;;7.20;99.90;;;;;;5036294;28;20477;-51
2023/04/08 00:45:03;;;;;;;31.20;19.27;;;7.10;99.90;;;;;;5036353;28;20757;-51
2023/04/08 00:47:30;;;;;;;30.20;20.00;;;7.10;99.90;;;;;;5036302;28;20449;-51
2023/04/08 00:49:57;;;;;;;32.10;20.83;;;7.10;99.90;;;;;;5035708;28;20485;-51
2023/04/08 00:52:23;;;;;;;25.90;18.47;;;7.00;99.90;;;;;;5053985;28;20549;-51
2023/04/08 00:54:50;;;;;;;31.70;20.90;;;7.30;99.90;;;;;;5035975;28;20425;-50
2023/04/08 00:57:18;;;;;;;35.00;21.90;;;7.00;99.90;;;;;;5035806;28;20455;-51
2023/04/08 00:59:45;;;;;;;31.43;20.90;;;6.70;99.90;;;;;;5035755;28;20937;-51
2023/04/08 01:02:16;;;;;;;33.80;22.17;;;6.90;99.90;;;;;;5035737;28;20442;-51
2023/04/08 01:04:52;;;;;;;33.70;21.83;;;6.40;99.90;;;;;;5053970;28;20422;-52
2023/04/08 01:07:24;;;;;;;36.87;21.60;;;7.30;99.90;;;;;;5035896;28;20962;-50
2023/04/08 01:09:54;;;;;;;34.10;22.17;;;7.30;99.90;;;;;;5035639;28;20518;-51
2023/04/08 01:12:27;;;;;;;33.40;22.70;;;7.10;99.90;;;;;;5053955;28;20463;-51
2023/04/08 01:15:01;;;;;;;34.77;21.80;;;6.60;99.90;;;;;;5035773;28;20448;-51
2023/04/08 01:17:29;;;;;;;31.10;21.77;;;7.00;99.90;;;;;;5053786;28;20563;-50
2023/04/08 01:19:59;;;;;;;34.07;22.00;;;7.00;99.90;;;;;;5036508;28;20479;-50
2023/04/08 01:22:34;;;;;;;36.63;24.97;;;7.10;99.90;;;;;;5035673;28;20495;-50
2023/04/08 01:25:06;;;;;;;35.30;23.93;;;7.20;99.90;;;;;;5035619;28;20472;-50
2023/04/08 01:27:36;;;;;;;37.20;23.63;;;7.30;99.90;;;;;;5035410;28;20518;-50
2023/04/08 01:30:05;;;;;;;32.83;24.77;;;7.30;99.90;;;;;;5052944;28;20432;-51
2023/04/08 01:32:34;;;;;;;33.33;23.07;;;7.10;99.90;;;;;;5035286;28;20473;-50
2023/04/08 01:35:02;;;;;;;36.80;24.47;;;6.90;99.90;;;;;;5053507;28;20449;-50
2023/04/08 01:37:30;;;;;;;36.47;23.53;;;7.30;99.90;;;;;;5035398;28;20519;-52
2023/04/08 01:39:58;;;;;;;40.13;24.90;;;7.20;99.90;;;;;;5052746;28;20411;-51
2023/04/08 01:42:26;;;;;;;38.67;23.87;;;7.10;99.90;;;;;;5053912;28;20438;-50
2023/04/08 01:44:57;;;;;;;40.00;25.20;;;7.30;99.90;;;;;;5053722;28;20410;-51
2023/04/08 01:47:26;;;;;;;37.80;23.67;;;7.50;99.90;;;;;;5053446;28;20426;-51
2023/04/08 01:49:53;;;;;;;40.10;26.00;;;7.00;99.90;;;;;;5052524;28;20428;-50
2023/04/08 01:52:20;;;;;;;46.33;24.53;;;6.80;99.90;;;;;;5069621;22;20475;-51
2023/04/08 01:54:48;;;;;;;43.10;26.30;;;7.20;99.90;;;;;;5031777;28;20544;-51
2023/04/08 01:57:19;;;;;;;35.83;24.47;;;7.20;99.90;;;;;;5015110;28;20442;-51
2023/04/08 01:59:50;;;;;;;39.80;25.47;;;6.80;99.90;;;;;;5031278;28;20449;-50
2023/04/08 02:02:20;;;;;;;35.33;24.17;;;6.80;99.90;;;;;;5015152;28;20466;-51
2023/04/08 02:04:47;;;;;;;37.97;25.00;;;7.10;99.90;;;;;;5032876;28;20410;-51
2023/04/08 02:07:15;;;;;;;35.87;23.23;;;7.40;99.90;;;;;;5015023;28;20431;-51
2023/04/08 02:09:41;;;;;;;41.30;25.70;;;7.20;99.90;;;;;;5014614;28;20427;-50
2023/04/08 02:12:08;;;;;;;37.23;26.10;;;7.20;99.90;;;;;;5032559;28;20428;-50
2023/04/08 02:14:35;;;;;;;35.33;25.13;;;7.60;99.90;;;;;;5032639;28;20503;-50
2023/04/08 02:17:08;;;;;;;40.10;25.07;;;7.50;99.90;;;;;;5014796;28;20428;-51
2023/04/08 02:19:45;;;;;;;39.10;23.97;;;7.40;99.90;;;;;;5032214;28;20470;-50
2023/04/08 02:22:18;;;;;;;43.27;27.57;;;7.40;99.90;;;;;;5032495;28;20866;-50
2023/04/08 02:24:45;;;;;;;42.50;24.97;;;7.60;99.90;;;;;;5032523;28;20409;-50
2023/04/08 02:27:13;;;;;;;39.40;23.67;;;7.40;99.90;;;;;;5014901;28;20431;-52
2023/04/08 02:29:42;;;;;;;41.10;23.67;;;7.30;99.90;;;;;;5032020;28;20437;-50
2023/04/08 02:32:10;;;;;;;35.33;24.30;;;7.20;99.90;;;;;;5014498;28;20447;-50
2023/04/08 02:34:39;;;;;;;45.17;24.50;;;7.40;99.90;;;;;;5014549;28;20426;-50
2023/04/08 02:37:07;;;;;;;36.33;23.97;;;7.40;99.90;;;;;;5014594;28;20452;-51
2023/04/08 02:39:35;;;;;;;44.87;25.63;;;7.40;99.90;;;;;;5014221;28;20420;-51
2023/04/08 02:42:01;;;;;;;38.60;24.50;;;7.10;99.90;;;;;;5014418;28;20831;-51
2023/04/08 02:44:28;;;;;;;44.67;24.93;;;7.20;99.90;;;;;;5032137;28;20408;-50
2023/04/08 02:46:57;;;;;;;42.67;24.83;;;6.90;99.90;;;;;;5014416;28;20460;-50
2023/04/08 02:49:24;;;;;;;47.23;25.07;;;7.00;99.90;;;;;;5031836;28;20408;-50
2023/04/08 02:51:52;;;;;;;39.87;23.57;;;7.20;99.90;;;;;;5031406;28;20432;-50
2023/04/08 02:54:19;;;;;;;41.50;25.93;;;6.70;99.90;;;;;;5014406;28;20427;-50
2023/04/08 02:56:45;;;;;;;38.97;25.13;;;6.90;99.90;;;;;;5014219;28;20511;-51
2023/04/08 02:59:12;;;;;;;40.50;24.13;;;7.00;99.90;;;;;;5031586;28;20506;-50
2023/04/08 03:01:39;;;;;;;43.47;26.90;;;7.10;99.90;;;;;;5014317;28;20976;-50
2023/04/08 03:04:06;;;;;;;43.57;25.80;;;7.10;99.90;;;;;;5032167;28;20444;-51
2023/04/08 03:06:32;;;;;;;41.10;24.80;;;7.20;99.90;;;;;;5032244;28;20439;-51
2023/04/08 03:09:00;;;;;;;44.90;26.30;;;6.90;99.90;;;;;;5031700;28;20409;-50
2023/04/08 03:11:27;;;;;;;43.13;25.40;;;6.50;99.90;;;;;;5032143;28;20799;-50
2023/04/08 03:13:53;;;;;;;42.57;25.37;;;7.10;99.90;;;;;;5031965;28;20432;-51
2023/04/08 03:16:20;;;;;;;43.93;27.23;;;7.40;99.90;;;;;;5032032;28;20437;-50
2023/04/08 03:18:47;;;;;;;46.90;26.73;;;7.50;99.90;;;;;;5031504;28;20489;-50
2023/04/08 03:21:13;;;;;;;44.70;26.63;;;7.00;99.90;;;;;;5032004;28;20517;-50
2023/04/08 03:23:40;;;;;;;48.97;26.70;;;6.90;99.90;;;;;;5031693;28;20557;-50
2023/04/08 03:26:08;;;;;;;45.50;27.70;;;6.90;99.90;;;;;;5031803;28;20408;-51
2023/04/08 03:28:35;;;;;;;41.53;26.93;;;7.10;99.90;;;;;;5031497;28;20405;-51
2023/04/08 03:31:03;;;;;;;45.10;27.90;;;7.20;99.90;;;;;;5032007;28;20432;-50
2023/04/08 03:33:30;;;;;;;47.23;27.17;;;7.50;99.90;;;;;;5031696;28;20424;-50
2023/04/08 03:35:57;;;;;;;45.87;26.73;;;7.10;99.90;;;;;;5031655;28;20433;-49
2023/04/08 03:38:23;;;;;;;46.87;28.47;;;7.00;99.90;;;;;;5031275;28;20808;-49
2023/04/08 03:40:50;;;;;;;52.60;28.70;;;7.20;99.90;;;;;;5031686;28;20404;-50
2023/04/08 03:43:20;;;;;;;50.50;27.50;;;7.00;99.90;;;;;;5031732;28;20959;-50
2023/04/08 03:45:47;;;;;;;47.73;26.47;;;6.90;99.90;;;;;;5031608;28;20846;-52
2023/04/08 03:48:14;;;;;;;43.33;27.87;;;7.00;99.90;;;;;;5031116;28;20924;-51
2023/04/08 03:50:40;;;;;;;43.73;26.97;;;7.10;99.90;;;;;;5031525;28;20448;-50
2023/04/08 03:53:10;;;;;;;51.17;28.80;;;7.30;99.90;;;;;;5013767;28;20480;-50
2023/04/08 03:55:36;;;;;;;49.87;27.10;;;6.60;99.90;;;;;;5032096;28;20441;-51
2023/04/08 03:58:03;;;;;;;47.53;27.50;;;7.50;99.90;;;;;;5013708;28;20472;-51
2023/04/08 04:00:31;;;;;;;42.90;26.83;;;7.20;99.90;;;;;;5031786;28;20503;-51
2023/04/08 04:02:58;;;;;;;49.70;28.60;;;7.40;99.90;;;;;;5014264;28;20492;-50
2023/04/08 04:05:25;;;;;;;49.47;27.70;;;7.40;99.90;;;;;;5035505;28;20411;-51
2023/04/08 04:07:51;;;;;;;49.00;28.17;;;7.50;99.90;;;;;;5035010;28;20433;-50
2023/04/08 04:10:18;;;;;;;58.33;28.47;;;7.40;99.90;;;;;;5034970;28;20411;-50
2023/04/08 04:12:46;;;;;;;54.90;29.73;;;7.20;99.90;;;;;;5035134;28;20820;-51
2023/04/08 04:15:13;;;;;;;43.30;26.93;;;7.30;99.90;;;;;;5034852;28;20459;-50
2023/04/08 04:17:41;;;;;;;50.13;31.07;;;7.40;99.90;;;;;;5034841;28;20415;-51
2023/04/08 04:20:09;;;;;;;51.43;29.17;;;7.60;99.90;;;;;;5034294;28;20479;-51
2023/04/08 04:22:35;;;;;;;47.70;28.53;;;7.10;99.90;;;;;;5016905;28;20464;-52
2023/04/08 04:25:02;;;;;;;48.20;28.37;;;7.40;99.90;;;;;;5034590;28;20405;-51
2023/04/08 04:27:28;;;;;;;48.67;28.37;;;7.60;99.90;;;;;;5035058;28;20417;-51
2023/04/08 04:29:55;;;;;;;53.87;27.50;;;7.50;99.90;;;;;;5034227;28;20434;-51
2023/04/08 04:32:22;;;;;;;51.97;30.17;;;7.20;99.90;;;;;;5034593;28;20452;-51
2023/04/08 04:34:50;;;;;;;47.53;27.70;;;7.20;99.90;;;;;;5034649;28;20449;-50
2023/04/08 04:37:17;;;;;;;50.70;28.53;;;7.20;99.90;;;;;;5034483;28;20412;-51
2023/04/08 04:39:43;;;;;;;40.60;27.10;;;7.40;99.90;;;;;;5034093;28;20810;-50
2023/04/08 04:42:10;;;;;;;46.53;28.20;;;7.20;99.90;;;;;;5034411;28;20432;-50
2023/04/08 04:44:37;;;;;;;44.40;27.30;;;7.20;99.90;;;;;;5034306;28;20437;-51
2023/04/08 04:47:04;;;;;;;42.50;26.93;;;7.20;99.90;;;;;;5034325;28;20413;-51
2023/04/08 04:49:31;;;;;;;40.80;27.17;;;7.30;99.90;;;;;;5033899;28;20426;-51
2023/04/08 04:51:59;;;;;;;39.30;26.87;;;7.40;99.90;;;;;;5034003;28;20719;-51
2023/04/08 04:54:25;;;;;;;47.93;27.50;;;7.20;99.90;;;;;;5016359;28;20917;-51
2023/04/08 04:56:52;;;;;;;49.70;27.43;;;7.50;99.90;;;;;;5033935;28;20743;-51
2023/04/08 04:59:19;;;;;;;47.57;26.60;;;7.30;99.90;;;;;;5033519;28;20479;-51
2023/04/08 05:01:45;;;;;;;46.90;29.00;;;7.20;99.90;;;;;;5033926;28;20824;-50
2023/04/08 05:04:12;;;;;;;46.93;28.90;;;7.60;99.90;;;;;;5033816;28;20434;-51
2023/04/08 05:06:39;;;;;;;45.23;29.57;;;7.50;99.90;;;;;;5033792;28;20456;-51
2023/04/08 05:09:07;;;;;;;45.93;31.13;;;7.40;99.90;;;;;;5033574;28;20429;-51
2023/04/08 05:11:33;;;;;;;47.53;30.70;;;7.40;99.90;;;;;;5033820;28;20430;-51
2023/04/08 05:14:00;;;;;;;49.37;29.67;;;7.40;99.90;;;;;;5033838;28;20439;-51
2023/04/08 05:16:27;;;;;;;52.50;30.50;;;7.30;99.90;;;;;;5033187;28;20409;-51
2023/04/08 05:18:54;;;;;;;53.73;29.30;;;7.90;99.90;;;;;;5033382;28;20901;-51
2023/04/08 05:21:20;;;;;;;47.37;30.27;;;7.50;99.90;;;;;;5033555;28;20434;-50
2023/04/08 05:23:47;;;;;;;56.33;30.50;;;7.30;99.90;;;;;;5015709;28;20478;-50
2023/04/08 05:26:15;;;;;;;51.73;28.87;;;7.40;99.90;;;;;;5033573;28;20491;-50
2023/04/08 05:28:41;;;;;;;53.50;31.80;;;7.70;99.90;;;;;;5033233;28;20463;-51
2023/04/08 05:31:08;;;;;;;51.80;29.17;;;7.60;99.90;;;;;;5033527;28;20430;-50
2023/04/08 05:33:35;;;;;;;62.20;32.13;;;7.60;99.90;;;;;;5033315;28;20454;-49
2023/04/08 05:36:01;;;;;;;57.30;32.60;;;7.30;99.90;;;;;;5033295;28;20426;-51
2023/04/08 05:38:28;;;;;;;48.00;30.97;;;8.00;99.90;;;;;;5032863;28;20472;-51
2023/04/08 05:40:54;;;;;;;53.20;31.43;;;7.60;99.90;;;;;;5015422;28;20442;-52
2023/04/08 05:43:22;;;;;;;52.87;31.07;;;7.50;99.90;;;;;;5033165;28;20535;-50
2023/04/08 05:45:49;;;;;;;52.97;31.27;;;7.70;99.90;;;;;;5033106;28;20436;-51
2023/04/08 05:48:16;;;;;;;51.87;30.10;;;7.70;99.90;;;;;;5032820;28;20433;-50
2023/04/08 05:50:42;;;;;;;57.63;32.53;;;7.60;99.90;;;;;;5033019;28;20413;-51
2023/04/08 05:53:09;;;;;;;59.17;33.03;;;7.70;99.90;;;;;;5032863;28;20505;-51
2023/04/08 05:55:36;;;;;;;56.20;31.73;;;7.20;99.90;;;;;;5033291;28;20441;-50
2023/04/08 05:58:03;;;;;;;56.40;31.73;;;7.80;99.90;;;;;;5032907;28;20502;-50
2023/04/08 06:00:31;;;;;;;50.30;32.27;;;7.80;99.90;;;;;;5014966;28;20889;-50
2023/04/08 06:02:57;;;;;;;57.23;33.70;;;7.90;99.90;;;;;;5032823;28;20840;-50
2023/04/08 06:05:24;;;;;;;55.27;33.30;;;7.90;99.90;;;;;;5032802;28;20434;-50
2023/04/08 06:07:51;;;;;;;60.23;32.30;;;7.80;99.90;;;;;;5032706;28;20454;-50
2023/04/08 06:10:17;;;;;;;57.77;31.73;;;7.70;99.90;;;;;;5032502;28;20939;-51
2023/04/08 06:12:44;;;;;;;59.50;32.40;;;7.60;99.90;;;;;;5032550;28;20454;-51
2023/04/08 06:15:11;;;;;;;61.33;32.57;;;7.70;99.90;;;;;;5032551;28;20428;-50
2023/04/08 06:17:39;;;;;;;56.50;31.23;;;7.90;99.90;;;;;;5032562;28;20402;-51
2023/04/08 06:20:08;;;;;;;60.87;34.07;;;7.70;99.90;;;;;;5032092;28;20479;-51
2023/04/08 06:22:34;;;;;;;54.80;32.40;;;7.60;99.90;;;;;;5032349;28;20462;-51
2023/04/08 06:25:01;;;;;;;61.30;34.20;;;7.10;99.90;;;;;;5014663;28;20828;-51
2023/04/08 06:27:28;;;;;;;52.93;31.87;;;8.10;99.90;;;;;;5031610;28;20441;-51
2023/04/08 06:29:55;;;;;;;57.10;32.73;;;7.40;99.90;;;;;;5031833;28;20790;-51
2023/04/08 06:32:21;;;;;;;58.30;32.10;;;7.60;99.90;;;;;;5032321;28;20821;-51
2023/04/08 06:34:49;;;;;;;63.77;35.37;;;7.80;99.90;;;;;;5032252;28;20432;-51
2023/04/08 06:37:16;;;;;;;66.23;33.33;;;8.10;99.90;;;;;;5032298;28;20412;-51
2023/04/08 06:39:43;;;;;;;50.80;33.17;;;7.70;99.90;;;;;;5031785;28;20481;-51
2023/04/08 06:42:09;;;;;;;56.03;33.03;;;8.40;99.90;;;;;;5032355;28;20513;-50
2023/04/08 06:45:01;;;;;;;54.13;32.60;;;8.10;99.90;;;;;;5014548;28;20486;-51
2023/04/08 06:47:28;;;;;;;54.43;32.63;;;7.90;99.90;;;;;;5032155;28;20402;-51
2023/04/08 06:49:56;;;;;;;53.33;32.20;;;8.20;99.90;;;;;;5031811;28;20965;-50
2023/04/08 06:52:22;;;;;;;58.20;33.40;;;8.20;99.90;;;;;;5032351;28;20471;-50
2023/04/08 06:54:49;;;;;;;53.97;31.43;;;8.30;99.90;;;;;;5032380;28;20439;-50
2023/04/08 06:57:16;;;;;;;58.50;33.30;;;8.30;99.90;;;;;;5032102;28;20439;-51
2023/04/08 06:59:42;;;;;;;59.73;33.73;;;8.20;99.90;;;;;;5031540;28;20986;-51
2023/04/08 07:02:09;;;;;;;47.70;30.30;;;8.00;99.90;;;;;;5031874;28;20968;-51
2023/04/08 07:04:36;;;;;;;47.10;31.20;;;8.40;99.90;;;;;;5031936;28;20402;-51
2023/04/08 07:07:04;;;;;;;60.20;33.80;;;8.60;99.90;;;;;;5031936;28;20518;-51
2023/04/08 07:09:31;;;;;;;55.37;32.20;;;8.40;99.90;;;;;;5031676;28;20408;-51
2023/04/08 07:11:58;;;;;;;50.83;31.60;;;8.20;99.90;;;;;;5014230;28;21137;-52
2023/04/08 07:14:25;;;;;;;54.70;31.20;;;8.00;99.90;;;;;;5031744;28;20443;-51
2023/04/08 07:16:52;;;;;;;49.50;30.00;;;8.20;99.90;;;;;;5031719;28;20436;-51
2023/04/08 07:19:18;;;;;;;51.30;30.53;;;8.60;99.90;;;;;;5031225;28;20471;-51
2023/04/08 07:21:45;;;;;;;43.73;30.90;;;8.60;99.90;;;;;;5013876;28;20819;-50
2023/04/08 07:24:13;;;;;;;50.37;32.07;;;8.70;99.90;;;;;;5031649;28;20417;-52
2023/04/08 07:26:40;;;;;;;45.00;29.90;;;8.90;99.90;;;;;;5031641;28;20488;-51
2023/04/08 07:29:07;;;;;;;46.93;30.33;;;8.70;99.90;;;;;;5031253;28;20436;-52
2023/04/08 07:31:33;;;;;;;45.57;29.13;;;9.10;99.90;;;;;;5031667;28;20437;-51
2023/04/08 07:34:00;;;;;;;45.00;28.33;;;9.20;99.90;;;;;;5031431;28;20443;-50
2023/04/08 07:36:27;;;;;;;49.53;29.80;;;9.10;99.90;;;;;;5031488;28;20543;-51
2023/04/08 07:38:53;;;;;;;48.87;30.20;;;8.90;99.90;;;;;;5033182;28;20446;-51
2023/04/08 07:41:21;;;;;;;47.93;29.70;;;9.20;99.90;;;;;;5035921;28;20431;-50
2023/04/08 07:43:48;;;;;;;51.17;32.03;;;9.00;99.90;;;;;;5018017;28;20529;-51
2023/04/08 07:46:15;;;;;;;49.43;32.83;;;9.10;99.90;;;;;;5035669;28;20768;-50
2023/04/08 07:48:41;;;;;;;47.13;30.23;;;9.10;99.90;;;;;;5034800;28;20446;-51
2023/04/08 07:51:09;;;;;;;43.60;30.27;;;9.00;99.90;;;;;;5035383;28;20785;-50
2023/04/08 07:53:36;;;;;;;44.67;29.73;;;9.00;99.90;;;;;;5035490;28;20467;-50
2023/04/08 07:56:03;;;;;;;47.87;30.67;;;9.00;99.90;;;;;;5035266;28;20409;-49
2023/04/08 07:58:31;;;;;;;52.37;32.40;;;9.40;99.90;;;;;;5034819;28;20414;-50
2023/04/08 08:00:58;;;;;;;44.10;29.27;;;9.60;99.90;;;;;;5035123;28;20548;-51
2023/04/08 08:03:26;;;;;;;48.90;29.70;;;9.70;99.90;;;;;;5034863;28;20455;-51
2023/04/08 08:05:52;;;;;;;45.20;29.57;;;9.00;99.90;;;;;;5034942;28;20417;-51
2023/04/08 08:08:19;;;;;;;42.43;29.20;;;8.90;99.90;;;;;;5034749;28;20398;-50
2023/04/08 08:10:45;;;;;;;44.23;28.83;;;9.20;99.90;;;;;;5035163;28;20436;-50
2023/04/08 08:13:15;;;;;;;44.90;30.07;;;9.80;99.90;;;;;;5035004;28;20458;-50
2023/04/08 08:15:43;;;;;;;48.90;30.63;;;9.20;99.90;;;;;;5034771;28;20422;-50
2023/04/08 08:18:10;;;;;;;45.47;30.50;;;9.40;99.90;;;;;;5034356;28;20403;-51
2023/04/08 08:20:37;;;;;;;50.60;30.77;;;9.30;99.90;;;;;;5034326;28;20482;-51
2023/04/08 08:23:03;;;;;;;46.60;28.50;;;9.50;99.90;;;;;;5034537;28;20434;-50
2023/04/08 08:25:30;;;;;;;51.10;31.20;;;9.30;99.90;;;;;;5034391;28;20745;-50
2023/04/08 08:27:57;;;;;;;48.70;30.13;;;9.90;99.90;;;;;;5016591;28;20496;-50
2023/04/08 08:30:25;;;;;;;49.27;30.17;;;10.00;99.90;;;;;;5034148;28;20413;-51
2023/04/08 08:32:53;;;;;;;45.00;30.73;;;9.60;99.90;;;;;;5034291;28;20491;-50
2023/04/08 08:35:19;;;;;;;44.47;30.30;;;9.30;99.90;;;;;;5034773;28;20932;-50
2023/04/08 08:37:46;;;;;;;48.40;29.53;;;9.60;99.90;;;;;;5016578;28;20815;-50
2023/04/08 08:40:14;;;;;;;45.07;29.63;;;9.70;99.90;;;;;;5033866;28;20475;-49
2023/04/08 08:42:40;;;;;;;42.03;29.80;;;10.00;99.90;;;;;;5034105;28;20463;-50
2023/04/08 08:45:08;;;;;;;45.43;28.50;;;9.90;99.90;;;;;;5034431;28;20441;-50
2023/04/08 08:47:35;;;;;;;45.73;28.80;;;10.00;99.90;;;;;;5016299;28;20800;-51
2023/04/08 08:50:03;;;;;;;43.00;29.73;;;10.10;99.90;;;;;;5033839;28;20467;-50
2023/04/08 08:52:30;;;;;;;40.20;28.33;;;9.50;99.90;;;;;;5034560;28;20478;-50
2023/04/08 08:54:58;;;;;;;47.77;31.30;;;9.90;99.90;;;;;;5035265;28;20443;-50
2023/04/08 08:57:26;;;;;;;40.83;28.70;;;10.60;99.90;;;;;;5034843;28;20459;-50
2023/04/08 08:59:53;;;;;;;41.90;28.90;;;10.40;99.90;;;;;;5034854;28;20457;-50
2023/04/08 09:02:27;;;;;;;41.53;28.10;;;10.60;99.90;;;;;;5033587;28;20463;-50
2023/04/08 09:04:59;;;;;;;37.20;26.20;;;10.80;99.90;;;;;;5034099;28;20435;-49
2023/04/08 09:07:28;;;;;;;40.30;27.80;;;10.80;99.90;;;;;;5034093;28;20421;-50
2023/04/08 09:09:56;;;;;;;37.03;26.47;;;10.20;99.90;;;;;;5033665;28;20987;-51
2023/04/08 09:12:23;;;;;;;39.50;27.90;;;10.60;99.90;;;;;;5033773;28;20804;-50
2023/04/08 09:14:50;;;;;;;43.73;29.00;;;11.00;99.90;;;;;;5033745;28;20447;-50
2023/04/08 09:17:31;;;;;;;39.13;28.10;;;11.30;99.90;;;;;;5033500;28;20418;-49
2023/04/08 09:20:19;;;;;;;45.20;28.93;;;11.00;99.90;;;;;;5033149;28;20892;-50
2023/04/08 09:23:00;;;;;;;42.33;29.27;;;11.10;99.90;;;;;;5033391;28;20826;-50
2023/04/08 09:25:28;;;;;;;39.30;27.00;;;11.50;99.90;;;;;;5033519;28;20893;-50
2023/04/08 09:27:55;;;;;;;37.50;26.20;;;11.20;99.90;;;;;;5033334;28;20808;-51
2023/04/08 09:30:23;;;;;;;35.30;26.57;;;11.00;99.90;;;;;;5033237;28;20425;-51
2023/04/08 09:32:51;;;;;;;43.90;29.30;;;11.00;99.90;;;;;;5033412;28;20447;-51
2023/04/08 09:35:18;;;;;;;37.37;27.13;;;11.40;99.90;;;;;;5032957;28;20441;-50
2023/04/08 09:37:46;;;;;;;38.47;28.27;;;11.50;99.90;;;;;;5033231;28;20447;-51
2023/04/08 09:40:15;;;;;;;45.27;27.57;;;10.50;99.90;;;;;;5032511;28;20471;-52
2023/04/08 09:42:45;;;;;;;38.10;26.40;;;11.10;99.90;;;;;;5015114;28;20471;-50
2023/04/08 09:45:13;;;;;;;40.90;27.50;;;11.20;99.90;;;;;;5032849;28;20425;-50
2023/04/08 09:47:59;;;;;;;40.60;28.50;;;10.80;99.90;;;;;;5033050;28;20509;-49
2023/04/08 09:50:32;;;;;;;36.57;26.93;;;11.00;99.90;;;;;;5032625;28;20424;-51
2023/04/08 09:53:01;;;;;;;38.70;27.73;;;10.90;99.90;;;;;;5015068;28;20476;-50
2023/04/08 09:55:34;;;;;;;39.57;27.27;;;11.00;99.90;;;;;;5032662;28;20442;-50
2023/04/08 09:58:06;;;;;;;38.43;28.50;;;11.30;99.90;;;;;;5032582;28;20502;-50
2023/04/08 10:00:38;;;;;;;38.20;27.07;;;10.90;99.90;;;;;;5032321;28;20476;-51
2023/04/08 10:03:11;;;;;;;38.73;26.90;;;11.30;99.90;;;;;;5015018;28;20475;-50
2023/04/08 10:05:40;;;;;;;39.70;28.80;;;10.70;99.90;;;;;;5032588;28;20929;-50
2023/04/08 10:08:07;;;;;;;38.43;27.67;;;10.40;99.90;;;;;;5032121;28;20419;-51
2023/04/08 10:10:38;;;;;;;38.23;28.47;;;11.50;99.90;;;;;;5032702;28;20434;-51
2023/04/08 10:13:06;;;;;;;36.70;26.00;;;11.40;99.90;;;;;;5032561;28;20466;-52
2023/04/08 10:15:35;;;;;;;33.30;24.00;;;11.80;99.90;;;;;;5032338;28;20457;-50
2023/04/08 10:18:30;;;;;;;39.60;28.70;;;11.50;99.90;;;;;;5032134;28;20478;-51
2023/04/08 10:20:57;;;;;;;37.33;25.90;;;11.70;99.90;;;;;;5032140;28;20905;-50
2023/04/08 10:23:54;;;;;;;34.10;28.00;;;11.90;99.90;;;;;;5031954;28;20461;-52
2023/04/08 10:26:33;;;;;;;33.10;25.80;;;11.90;99.90;;;;;;5032440;28;20430;-52
2023/04/08 10:29:31;;;;;;;32.23;24.30;;;12.20;99.90;;;;;;5031914;28;20426;-50
2023/04/08 10:31:58;;;;;;;28.53;21.03;;;12.20;99.90;;;;;;5031960;28;20468;-52
2023/04/08 10:34:26;;;;;;;27.90;21.77;;;12.30;99.90;;;;;;5031965;28;20430;-53
2023/04/08 10:36:54;;;;;;;26.23;21.17;;;12.30;99.90;;;;;;5032086;28;20446;-53
2023/04/08 10:39:21;;;;;;;28.90;23.57;;;12.30;99.90;;;;;;5031742;28;20788;-52
2023/04/08 10:41:50;;;;;;;32.50;22.30;;;12.60;99.90;;;;;;5031918;28;20623;-51
2023/04/08 10:44:17;;;;;;;30.33;23.07;;;12.70;99.90;;;;;;5031796;28;20434;-52
2023/04/08 10:46:44;;;;;;;29.43;22.90;;;12.80;99.90;;;;;;5031818;28;20437;-51
2023/04/08 10:49:11;;;;;;;29.27;23.63;;;12.40;99.90;;;;;;5031715;28;20454;-54
2023/04/08 10:51:38;;;;;;;24.63;21.70;;;13.10;99.90;;;;;;5031828;28;20438;-51
2023/04/08 10:54:07;;;;;;;30.07;22.73;;;12.40;99.90;;;;;;5031943;28;20490;-55
2023/04/08 10:56:35;;;;;;;30.00;20.70;;;12.80;99.90;;;;;;5032097;28;20447;-53
2023/04/08 10:59:03;;;;;;;24.33;20.30;;;13.10;99.90;;;;;;5030148;28;20453;-53
2023/04/08 11:01:39;;;;;;;27.93;20.50;;;12.10;99.90;;;;;;5031619;28;20797;-54
2023/04/08 11:04:12;;;;;;;27.33;21.03;;;12.90;99.90;;;;;;5031939;28;20987;-53
2023/04/08 11:06:38;;;;;;;29.23;21.27;;;12.20;99.90;;;;;;5031704;28;20793;-46
2023/04/08 11:09:05;;;;;;;26.10;21.50;;;12.50;99.90;;;;;;5031885;28;21009;-46
2023/04/08 11:11:32;;;;;;;29.13;22.03;;;12.80;99.90;;;;;;5032346;28;20426;-47
2023/04/08 11:13:58;;;;;;;25.10;20.20;;;12.70;99.90;;;;;;5034160;28;20471;-47
2023/04/08 11:16:27;;;;;;;25.87;21.47;;;12.60;99.90;;;;;;5036236;28;20448;-50
2023/04/08 11:18:55;;;;;;;24.47;20.80;;;12.90;99.90;;;;;;5035721;28;20449;-47
2023/04/08 11:21:24;;;;;;;22.67;19.07;;;12.90;99.90;;;;;;5035906;28;20476;-47
2023/04/08 11:23:51;;;;;;;30.03;22.20;;;12.70;99.90;;;;;;5035858;28;20504;-47
2023/04/08 11:26:18;;;;;;;30.40;21.07;;;12.80;99.90;;;;;;5036153;28;20440;-47
2023/04/08 11:28:46;;;;;;;25.13;21.60;;;12.80;99.90;;;;;;5035704;28;20537;-46
2023/04/08 11:31:13;;;;;;;24.20;21.60;;;12.90;99.90;;;;;;5036459;28;20439;-47
2023/04/08 11:33:47;;;;;;;25.93;22.53;;;13.30;99.90;;;;;;5035609;28;20457;-47
2023/04/08 11:36:14;;;;;;;24.83;20.77;;;13.00;99.90;;;;;;5035646;28;20996;-47
2023/04/08 11:38:41;;;;;;;27.43;21.80;;;13.00;99.90;;;;;;5035517;28;20449;-47
2023/04/08 11:41:07;;;;;;;22.93;20.43;;;13.10;99.90;;;;;;5035708;28;20482;-47
2023/04/08 11:43:35;;;;;;;24.90;20.53;;;13.40;99.90;;;;;;5035342;28;20442;-47
2023/04/08 11:46:09;;;;;;;23.30;20.37;;;13.60;99.90;;;;;;5035450;28;20478;-47
2023/04/08 11:48:37;;;;;;;25.50;20.30;;;13.40;99.90;;;;;;5035078;28;20405;-47
2023/04/08 11:51:08;;;;;;;24.30;20.63;;;13.20;99.90;;;;;;5035828;28;20523;-46
2023/04/08 11:53:36;;;;;;;26.30;21.10;;;13.20;99.90;;;;;;5035610;28;20520;-47
2023/04/08 11:56:17;;;;;;;24.53;20.70;;;13.50;99.90;;;;;;5035413;28;20451;-47
2023/04/08 11:58:43;;;;;;;28.90;22.57;;;13.10;99.90;;;;;;5035244;28;20461;-46
2023/04/08 12:01:10;;;;;;;24.67;20.67;;;13.20;99.90;;;;;;5034945;28;20477;-46
2023/04/08 12:03:37;;;;;;;25.70;21.73;;;13.00;99.90;;;;;;5035503;28;20465;-47
2023/04/08 12:06:07;;;;;;;26.20;21.73;;;13.10;99.90;;;;;;5035928;28;20442;-46
2023/04/08 12:08:34;;;;;;;26.90;22.40;;;13.50;99.90;;;;;;5035732;28;20970;-47
2023/04/08 12:11:01;;;;;;;25.90;22.23;;;13.50;99.90;;;;;;5036488;28;20523;-47
2023/04/08 12:13:27;;;;;;;26.23;19.87;;;13.40;99.90;;;;;;5035934;28;20459;-48
2023/04/08 12:15:54;;;;;;;23.13;17.90;;;13.40;99.90;;;;;;5035813;28;20438;-45
2023/04/08 12:18:21;;;;;;;22.60;19.67;;;13.60;99.90;;;;;;5034630;28;20947;-45
2023/04/08 12:20:48;;;;;;;19.93;17.30;;;13.50;99.90;;;;;;5035043;28;20581;-45
2023/04/08 12:23:16;;;;;;;22.03;19.07;;;13.40;99.90;;;;;;5035018;28;20446;-47
2023/04/08 12:25:43;;;;;;;17.30;15.10;;;13.80;99.90;;;;;;5033487;28;20435;-46
2023/04/08 12:28:10;;;;;;;18.37;15.07;;;13.80;99.90;;;;;;5034509;28;20435;-47
2023/04/08 12:30:37;;;;;;;18.60;16.60;;;14.10;99.90;;;;;;5035051;28;20406;-46
2023/04/08 12:33:04;;;;;;;16.43;14.73;;;14.00;99.80;;;;;;5034753;28;20463;-46
2023/04/08 12:35:31;;;;;;;15.90;14.30;;;13.70;99.70;;;;;;5016595;28;20443;-46
2023/04/08 12:37:57;;;;;;;16.33;14.17;;;13.70;99.30;;;;;;5016665;28;20443;-46